createdAt,value
2019-05-12T00:04:39.605Z,73.18
2019-05-12T00:09:42.890Z,73.49
2019-05-12T00:14:48.394Z,74.31
2019-05-12T00:19:51.202Z,74.11
2019-05-12T00:24:54.521Z,73.42
2019-05-12T00:29:57.945Z,73.86
2019-05-12T00:35:01.193Z,73.63
2019-05-12T00:40:05.274Z,72.99
2019-05-12T00:45:08.818Z,73.16
2019-05-12T00:50:12.107Z,73.02
2019-05-12T00:55:15.403Z,72.24
2019-05-12T01:00:19.520Z,71.29
2019-05-12T01:05:22.876Z,71.12
2019-05-12T01:10:28.316Z,70.78
2019-05-12T01:15:31.222Z,70.88
2019-05-12T01:20:34.547Z,71.38
2019-05-12T01:25:39.600Z,71.06
2019-05-12T01:30:43.248Z,70.79
2019-05-12T01:35:48.273Z,70.58
2019-05-12T01:40:51.705Z,70.38
2019-05-12T01:45:55.004Z,69.92
2019-05-12T01:50:58.363Z,69.78
2019-05-12T01:56:01.661Z,69.42
2019-05-12T02:01:05.069Z,69.67
2019-05-12T02:06:08.505Z,69.43
2019-05-12T02:11:29.560Z,69.22
2019-05-12T02:16:33.113Z,69.72
2019-05-12T02:21:38.191Z,69.56
2019-05-12T02:26:41.508Z,69.44
2019-05-12T02:31:44.807Z,69.00
2019-05-12T02:36:48.094Z,69.10
2019-05-12T02:41:54.049Z,68.29
2019-05-12T02:46:56.420Z,68.29
2019-05-12T02:52:00.045Z,68.33
2019-05-12T02:57:04.771Z,68.04
2019-05-12T03:02:09.550Z,67.83
2019-05-12T03:07:15.263Z,68.08
2019-05-12T03:12:18.142Z,68.14
2019-05-12T03:17:24.870Z,67.54
2019-05-12T03:22:26.472Z,67.29
2019-05-12T03:27:29.819Z,67.41
2019-05-12T03:32:37.881Z,67.31
2019-05-12T03:37:38.211Z,67.55
2019-05-12T03:42:44.168Z,67.37
2019-05-12T03:47:46.510Z,67.56
2019-05-12T03:52:49.906Z,67.76
2019-05-12T03:57:55.127Z,67.34
2019-05-12T04:02:58.204Z,66.93
2019-05-12T04:08:05.106Z,67.11
2019-05-12T04:13:06.638Z,66.84
2019-05-12T04:18:09.962Z,67.12
2019-05-12T04:23:15.356Z,67.00
2019-05-12T04:28:18.311Z,67.32
2019-05-12T04:33:21.607Z,66.94
2019-05-12T04:38:25.112Z,66.42
2019-05-12T04:43:28.357Z,66.57
2019-05-12T04:48:35.837Z,66.58
2019-05-12T04:53:37.576Z,66.66
2019-05-12T04:58:40.906Z,65.73
2019-05-12T05:03:44.498Z,65.71
2019-05-12T05:08:47.865Z,65.89
2019-05-12T05:13:51.152Z,65.55
2019-05-12T05:18:54.493Z,65.73
2019-05-12T05:23:57.732Z,65.48
2019-05-12T05:29:01.022Z,64.89
2019-05-12T05:34:05.023Z,64.67
2019-05-12T05:39:08.466Z,64.38
2019-05-12T05:44:13.894Z,64.32
2019-05-12T05:49:16.767Z,62.98
2019-05-12T05:54:24.760Z,63.59
2019-05-12T05:59:31.151Z,63.52
2019-05-12T06:04:30.284Z,63.13
2019-05-12T06:09:34.006Z,63.72
2019-05-12T06:14:40.625Z,63.72
2019-05-12T06:19:43.774Z,63.29
2019-05-12T06:24:49.062Z,63.23
2019-05-12T06:30:00.801Z,63.91
2019-05-12T06:35:01.489Z,63.59
2019-05-12T06:40:05.269Z,63.76
2019-05-12T06:45:08.746Z,63.06
2019-05-12T06:50:14.535Z,62.86
2019-05-12T06:55:17.523Z,62.53
2019-05-12T07:00:22.364Z,62.89
2019-05-12T07:05:28.155Z,62.48
2019-05-12T07:10:39.564Z,61.80
2019-05-12T07:15:40.389Z,62.00
2019-05-12T07:20:43.403Z,61.25
2019-05-12T07:25:47.882Z,61.43
2019-05-12T07:30:54.339Z,60.63
2019-05-12T07:36:01.452Z,60.27
2019-05-12T07:41:06.757Z,59.64
2019-05-12T07:46:09.092Z,59.26
2019-05-12T07:51:13.753Z,58.67
2019-05-12T07:56:19.550Z,58.05
2019-05-12T08:01:23.602Z,57.82
2019-05-12T08:06:26.989Z,57.15
2019-05-12T08:11:36.647Z,57.08
2019-05-12T08:16:36.911Z,57.38
2019-05-12T08:21:43.750Z,58.01
2019-05-12T08:26:49.692Z,57.23
2019-05-12T08:31:50.441Z,57.53
2019-05-12T08:36:57.825Z,57.86
2019-05-12T08:41:58.767Z,57.49
2019-05-12T08:47:03.924Z,57.35
2019-05-12T08:52:07.063Z,57.24
2019-05-12T08:57:10.342Z,56.89
2019-05-12T09:02:13.939Z,57.13
2019-05-12T09:07:17.593Z,56.33
2019-05-12T09:12:23.177Z,56.17
2019-05-12T09:17:26.001Z,56.36
2019-05-12T09:22:29.360Z,55.80
2019-05-12T09:27:33.466Z,56.50
2019-05-12T09:32:39.082Z,55.79
2019-05-12T09:37:43.967Z,55.35
2019-05-12T09:42:47.008Z,55.10
2019-05-12T09:47:51.273Z,55.07
2019-05-12T09:52:55.602Z,54.81
2019-05-12T09:57:59.589Z,54.04
2019-05-12T10:03:04.831Z,53.82
2019-05-12T10:08:07.905Z,53.77
2019-05-12T10:13:13.666Z,53.54
2019-05-12T10:18:16.396Z,52.25
2019-05-12T10:23:24.146Z,51.26
2019-05-12T10:28:24.703Z,50.96
2019-05-12T10:33:27.998Z,50.42
2019-05-12T10:38:31.306Z,49.99
2019-05-12T10:43:34.591Z,50.46
2019-05-12T10:48:37.897Z,50.34
2019-05-12T10:53:43.141Z,50.17
2019-05-12T10:58:46.241Z,50.04
2019-05-12T11:03:50.737Z,50.74
2019-05-12T11:08:54.425Z,49.93
2019-05-12T11:13:57.718Z,49.78
2019-05-12T11:19:08.776Z,50.31
2019-05-12T11:24:06.051Z,51.65
2019-05-12T11:29:09.332Z,51.76
2019-05-12T11:34:12.629Z,49.92
2019-05-12T11:39:15.948Z,49.18
2019-05-12T11:44:19.242Z,50.11
2019-05-12T11:49:26.282Z,50.33
2019-05-12T11:54:28.087Z,49.06
2019-05-12T11:59:31.452Z,47.73
2019-05-12T12:04:39.339Z,46.90
2019-05-12T12:09:43.859Z,47.61
2019-05-12T12:14:50.426Z,48.77
2019-05-12T12:19:54.461Z,48.33
2019-05-12T12:25:03.179Z,48.32
2019-05-12T12:30:16.046Z,46.02
2019-05-12T12:35:11.875Z,46.17
2019-05-12T12:40:14.360Z,46.38
2019-05-12T12:45:30.455Z,43.76
2019-05-12T12:50:34.395Z,42.88
2019-05-12T12:55:42.914Z,41.14
2019-05-12T13:00:48.117Z,41.15
2019-05-12T13:05:47.797Z,41.68
2019-05-12T13:10:53.934Z,43.52
2019-05-12T13:15:56.197Z,44.29
2019-05-12T13:20:59.508Z,43.58
2019-05-12T13:26:04.327Z,43.93
2019-05-12T13:31:12.846Z,44.43
2019-05-12T13:36:13.641Z,44.19
2019-05-12T13:41:19.896Z,43.14
2019-05-12T13:46:23.917Z,42.48
2019-05-12T13:51:27.320Z,42.79
2019-05-12T13:56:35.244Z,42.33
2019-05-12T14:01:40.120Z,41.26
2019-05-12T14:06:40.713Z,40.03
2019-05-12T14:11:44.006Z,39.23
2019-05-12T14:16:53.567Z,39.80
2019-05-12T14:21:54.193Z,39.17
2019-05-12T14:26:57.374Z,40.41
2019-05-12T14:32:03.019Z,39.38
2019-05-12T14:37:10.217Z,37.56
2019-05-12T14:42:13.496Z,38.08
2019-05-12T14:47:19.286Z,37.76
2019-05-12T14:52:21.714Z,38.59
2019-05-12T14:57:29.428Z,39.22
2019-05-12T15:02:30.053Z,39.66
2019-05-12T15:07:33.348Z,38.52
2019-05-12T15:12:36.657Z,38.33
2019-05-12T15:17:39.957Z,37.98
2019-05-12T15:22:51.230Z,37.55
2019-05-12T15:27:48.587Z,37.67
2019-05-12T15:32:53.621Z,37.47
2019-05-12T15:37:56.942Z,37.65
2019-05-12T15:43:00.727Z,37.18
2019-05-12T15:48:05.265Z,36.78
2019-05-12T15:53:13.779Z,36.57
2019-05-12T15:58:14.314Z,37.19
2019-05-12T16:03:17.797Z,36.14
2019-05-12T16:08:21.174Z,36.65
2019-05-12T16:13:24.571Z,36.76
2019-05-12T16:18:27.854Z,37.60
2019-05-12T16:23:31.163Z,37.41
2019-05-12T16:28:34.462Z,39.26
2019-05-12T16:33:37.834Z,37.52
2019-05-12T16:38:41.255Z,37.76
2019-05-12T16:43:44.544Z,37.60
2019-05-12T16:48:53.494Z,37.55
2019-05-12T16:53:53.974Z,37.72
2019-05-12T16:58:57.418Z,37.34
2019-05-12T17:04:00.741Z,37.56
2019-05-12T17:09:06.951Z,36.94
2019-05-12T17:14:10.276Z,37.41
2019-05-12T17:19:15.459Z,38.24
2019-05-12T17:24:18.915Z,37.96
2019-05-12T17:29:24.196Z,38.50
2019-05-12T17:34:28.254Z,39.09
2019-05-12T17:39:35.787Z,39.81
2019-05-12T17:44:38.953Z,39.67
2019-05-12T17:49:43.638Z,40.12
2019-05-12T17:54:46.706Z,40.58
2019-05-12T17:59:49.997Z,40.68
2019-05-12T18:04:53.579Z,40.94
2019-05-12T18:10:00.579Z,41.18
2019-05-12T18:15:04.050Z,41.45
2019-05-12T18:20:08.430Z,41.56
2019-05-12T18:25:14.366Z,42.06
2019-05-12T18:30:19.200Z,41.89
2019-05-12T18:41:25.045Z,42.79
2019-05-12T18:46:28.403Z,42.69
2019-05-12T18:51:34.158Z,43.09
2019-05-12T18:56:36.664Z,43.86
2019-05-12T19:01:40.122Z,44.15
2019-05-12T19:06:43.924Z,44.38
2019-05-12T19:11:47.400Z,44.43
2019-05-12T19:16:50.677Z,44.78
2019-05-12T19:22:04.913Z,44.99
2019-05-12T19:27:00.969Z,45.35
2019-05-12T19:32:04.701Z,45.97
2019-05-12T19:37:08.047Z,46.40
2019-05-12T19:42:18.648Z,46.76
2019-05-12T19:47:21.269Z,46.92
2019-05-12T19:52:21.358Z,47.59
2019-05-12T19:57:26.241Z,48.28
2019-05-12T20:02:29.610Z,48.66
2019-05-12T20:07:33.864Z,48.79
2019-05-12T20:12:37.273Z,49.00
2019-05-12T20:17:40.553Z,49.21
2019-05-12T20:22:44.192Z,49.96
2019-05-12T20:27:47.517Z,50.09
2019-05-12T20:32:50.809Z,50.36
2019-05-12T20:37:57.343Z,50.29
2019-05-12T20:43:07.771Z,50.44
2019-05-12T20:48:04.415Z,50.32
2019-05-12T20:53:07.705Z,50.52
2019-05-12T20:58:13.465Z,50.06
2019-05-12T21:03:16.030Z,50.43
2019-05-12T21:08:19.329Z,51.69
2019-05-12T21:13:27.379Z,50.71
2019-05-12T21:18:27.637Z,50.92
2019-05-12T21:23:33.193Z,51.96
2019-05-12T21:28:40.614Z,51.95
2019-05-12T21:33:41.779Z,54.32
2019-05-12T21:38:45.105Z,53.74
2019-05-12T21:43:48.451Z,53.75
2019-05-12T21:48:53.158Z,52.81
2019-05-12T21:53:57.828Z,52.72
2019-05-12T21:59:03.610Z,52.54
2019-05-12T22:04:06.142Z,52.54
2019-05-12T22:09:09.445Z,52.82
2019-05-12T22:14:13.677Z,52.62
2019-05-12T22:19:17.113Z,52.33
2019-05-12T22:24:27.578Z,52.37
2019-05-12T22:29:29.973Z,52.25
2019-05-12T22:34:37.382Z,51.76
2019-05-12T22:39:35.608Z,51.87
2019-05-12T22:44:38.902Z,50.84
2019-05-12T22:49:44.252Z,50.72
2019-05-12T22:54:50.933Z,50.63
2019-05-12T22:59:53.187Z,50.63
2019-05-12T23:04:56.648Z,50.70
2019-05-12T23:10:00.466Z,50.67
2019-05-12T23:15:07.707Z,50.80
2019-05-12T23:20:13.543Z,51.04
2019-05-12T23:25:19.590Z,51.11
2019-05-12T23:30:23.992Z,50.51
2019-05-12T23:35:28.120Z,50.07
2019-05-12T23:40:31.241Z,49.78
2019-05-12T23:45:34.619Z,49.94
2019-05-12T23:50:37.899Z,50.03
2019-05-12T23:55:43.649Z,49.90
